createdAt,value
2023-03-20T00:03:32.248Z,12.97
2023-03-20T00:07:33.381Z,14.03
2023-03-20T00:11:38.789Z,13.63
2023-03-20T00:15:42.351Z,12.17
2023-03-20T00:19:43.577Z,13.43
2023-03-20T00:23:45.630Z,12.33
2023-03-20T00:27:47.344Z,12.80
2023-03-20T00:31:48.868Z,13.17
2023-03-20T00:35:49.959Z,10.50
2023-03-20T00:39:51.078Z,12.07
2023-03-20T00:43:58.848Z,10.70
2023-03-20T00:48:01.238Z,12.43
2023-03-20T00:52:03.394Z,11.63
2023-03-20T00:56:05.393Z,12.17
2023-03-20T01:00:10.711Z,11.60
2023-03-20T01:04:14.740Z,11.87
2023-03-20T01:08:19.254Z,10.27
2023-03-20T01:12:20.331Z,11.33
2023-03-20T01:16:24.080Z,11.23
2023-03-20T01:20:28.257Z,10.33
2023-03-20T01:24:29.209Z,10.23
2023-03-20T01:28:31.804Z,11.90
2023-03-20T01:32:32.860Z,12.70
2023-03-20T01:36:33.948Z,13.50
2023-03-20T01:41:03.136Z,15.03
2023-03-20T01:45:14.413Z,16.63
2023-03-20T01:49:22.233Z,18.73
2023-03-20T01:53:26.939Z,20.73
2023-03-20T01:57:28.159Z,25.90
2023-03-20T02:01:29.616Z,28.77
2023-03-20T02:05:31.458Z,26.73
2023-03-20T02:09:32.553Z,29.67
2023-03-20T02:13:34.633Z,34.37
2023-03-20T02:17:35.816Z,35.37
2023-03-20T02:21:49.885Z,35.50
2023-03-20T02:26:14.138Z,38.13
2023-03-20T02:30:40.384Z,40.47
2023-03-20T02:34:56.846Z,47.40
2023-03-20T02:39:04.804Z,42.63
2023-03-20T02:43:18.413Z,46.60
2023-03-20T02:47:28.677Z,44.23
2023-03-20T02:51:45.910Z,49.17
2023-03-20T02:55:59.447Z,44.00
2023-03-20T03:00:13.528Z,48.03
2023-03-20T03:04:29.711Z,53.70
2023-03-20T03:08:34.517Z,53.70
2023-03-20T03:12:39.513Z,55.47
2023-03-20T03:16:42.610Z,54.10
2023-03-20T03:20:46.166Z,57.00
2023-03-20T03:24:50.788Z,57.50
2023-03-20T03:28:56.205Z,59.03
2023-03-20T03:33:23.395Z,68.13
2023-03-20T03:37:28.177Z,72.83
2023-03-20T03:41:41.708Z,71.13
2023-03-20T03:45:46.520Z,76.20
2023-03-20T03:49:57.212Z,77.87
2023-03-20T03:54:02.157Z,76.00
2023-03-20T03:58:09.948Z,92.13
2023-03-20T04:02:12.211Z,90.80
2023-03-20T04:06:16.158Z,84.07
2023-03-20T04:10:17.380Z,86.27
2023-03-20T04:14:18.920Z,88.47
2023-03-20T04:18:19.879Z,90.93
2023-03-20T04:22:20.948Z,94.17
2023-03-20T04:26:23.069Z,108.17
2023-03-20T04:30:24.072Z,114.23
2023-03-20T04:34:25.117Z,118.37
2023-03-20T04:38:26.668Z,122.63
2023-03-20T04:42:27.665Z,129.30
2023-03-20T04:46:28.704Z,121.53
2023-03-20T04:50:29.836Z,128.43
2023-03-20T04:54:31.126Z,111.63
2023-03-20T04:58:32.753Z,109.47
2023-03-20T05:02:33.916Z,113.63
2023-03-20T05:06:35.329Z,115.87
2023-03-20T05:14:39.924Z,108.57
2023-03-20T05:18:41.000Z,100.60
2023-03-20T05:22:42.259Z,98.00
2023-03-20T05:26:43.447Z,110.70
2023-03-20T05:30:44.840Z,99.17
2023-03-20T05:34:45.893Z,102.80
2023-03-20T05:38:46.993Z,96.10
2023-03-20T05:42:47.973Z,92.40
2023-03-20T05:46:48.999Z,97.50
2023-03-20T05:50:50.291Z,94.87
2023-03-20T05:54:51.271Z,98.13
2023-03-20T05:58:52.412Z,89.43
2023-03-20T06:02:53.678Z,87.03
2023-03-20T06:06:54.766Z,87.20
2023-03-20T06:10:56.029Z,84.90
2023-03-20T06:14:57.153Z,85.73
2023-03-20T06:18:58.981Z,81.33
2023-03-20T06:23:00.118Z,73.67
2023-03-20T06:27:01.255Z,78.30
2023-03-20T06:31:02.455Z,74.63
2023-03-20T06:35:05.338Z,65.27
2023-03-20T06:39:07.100Z,70.17
2023-03-20T06:43:08.408Z,62.40
2023-03-20T06:47:09.576Z,55.67
2023-03-20T06:51:10.887Z,61.17
2023-03-20T06:55:12.020Z,65.67
2023-03-20T06:59:13.348Z,53.10
2023-03-20T07:03:15.318Z,51.60
2023-03-20T07:07:16.621Z,48.03
2023-03-20T07:11:17.997Z,47.80
2023-03-20T07:15:19.686Z,46.70
2023-03-20T07:19:20.970Z,43.10
2023-03-20T07:23:22.114Z,47.40
2023-03-20T07:27:23.319Z,42.50
2023-03-20T07:31:28.332Z,43.00
2023-03-20T07:35:29.994Z,37.83
2023-03-20T07:39:31.547Z,43.70
2023-03-20T07:43:33.007Z,40.33
2023-03-20T07:47:34.732Z,40.53
2023-03-20T07:51:36.002Z,38.47
2023-03-20T07:55:37.499Z,41.33
2023-03-20T07:59:38.787Z,38.10
2023-03-20T08:03:39.970Z,35.47
2023-03-20T08:07:41.119Z,31.83
2023-03-20T08:11:42.594Z,32.80
2023-03-20T08:15:43.974Z,33.63
2023-03-20T08:19:45.374Z,32.23
2023-03-20T08:23:46.476Z,34.53
2023-03-20T08:27:48.063Z,37.20
2023-03-20T08:31:49.253Z,34.57
2023-03-20T08:35:58.085Z,35.07
2023-03-20T08:39:59.052Z,33.37
2023-03-20T08:44:01.121Z,29.87
2023-03-20T08:48:02.417Z,31.07
2023-03-20T08:52:03.873Z,30.70
2023-03-20T08:56:05.896Z,28.93
2023-03-20T09:00:09.151Z,27.17
2023-03-20T09:04:11.477Z,25.83
2023-03-20T09:08:13.125Z,26.20
2023-03-20T09:12:14.349Z,28.07
2023-03-20T09:16:15.974Z,26.00
2023-03-20T09:20:28.684Z,15.93
2023-03-20T09:24:30.829Z,17.57
2023-03-20T09:28:32.027Z,14.37
2023-03-20T09:32:34.405Z,16.60
2023-03-20T09:36:35.858Z,17.53
2023-03-20T09:40:43.580Z,16.83
2023-03-20T09:44:51.316Z,16.93
2023-03-20T09:49:18.660Z,13.77
2023-03-20T09:53:32.430Z,16.47
2023-03-20T09:57:45.834Z,17.10
2023-03-20T10:01:53.814Z,15.30
2023-03-20T10:06:04.026Z,14.03
2023-03-20T10:10:07.304Z,14.63
2023-03-20T10:14:31.669Z,15.07
2023-03-20T10:18:36.203Z,15.60
2023-03-20T10:22:49.971Z,13.77
2023-03-20T10:26:53.317Z,14.80
2023-03-20T10:31:17.632Z,14.20
2023-03-20T10:35:25.785Z,14.77
2023-03-20T10:39:56.398Z,13.77
2023-03-20T10:43:59.064Z,12.60
2023-03-20T10:48:03.897Z,10.87
2023-03-20T10:52:08.922Z,12.80
2023-03-20T10:56:16.894Z,14.23
2023-03-20T11:00:20.916Z,13.17
2023-03-20T11:04:22.163Z,11.87
2023-03-20T11:08:25.518Z,11.73
2023-03-20T11:12:30.579Z,11.70
2023-03-20T11:16:36.260Z,13.77
2023-03-20T11:20:41.166Z,15.33
2023-03-20T11:24:45.514Z,13.77
2023-03-20T11:28:49.892Z,13.80
2023-03-20T11:32:54.591Z,12.97
2023-03-20T11:37:09.721Z,11.87
2023-03-20T11:41:04.464Z,13.47
2023-03-20T11:45:09.031Z,11.03
2023-03-20T11:49:20.259Z,9.57
2023-03-20T11:53:33.858Z,9.17
2023-03-20T11:57:41.431Z,8.23
2023-03-20T12:01:48.594Z,9.43
2023-03-20T12:05:49.565Z,9.67
2023-03-20T12:09:54.529Z,7.00
2023-03-20T12:13:59.896Z,6.80
2023-03-20T12:18:07.500Z,7.50
2023-03-20T12:22:18.234Z,6.30
2023-03-20T12:26:37.749Z,5.77
2023-03-20T12:30:51.628Z,6.73
2023-03-20T12:34:59.200Z,6.47
2023-03-20T12:39:06.160Z,5.03
2023-03-20T12:43:14.169Z,6.07
2023-03-20T12:47:52.226Z,5.23
2023-03-20T12:52:02.604Z,4.90
2023-03-20T12:56:13.872Z,7.17
2023-03-20T13:00:24.940Z,4.03
2023-03-20T13:04:45.534Z,3.63
2023-03-20T13:08:50.587Z,3.37
2023-03-20T13:13:07.666Z,3.70
2023-03-20T13:17:30.718Z,4.23
2023-03-20T13:21:41.732Z,4.30
2023-03-20T13:25:53.500Z,3.67
2023-03-20T13:30:15.175Z,4.63
2023-03-20T13:34:35.330Z,6.23
2023-03-20T13:38:40.439Z,5.53
2023-03-20T13:42:51.412Z,4.60
2023-03-20T13:47:05.595Z,4.13
2023-03-20T13:51:30.550Z,4.33
2023-03-20T13:55:46.596Z,3.80
2023-03-20T14:00:00.565Z,4.43
2023-03-20T14:04:02.446Z,5.07
2023-03-20T14:08:19.908Z,4.80
2023-03-20T14:12:24.546Z,5.50
2023-03-20T14:16:28.440Z,5.67
2023-03-20T14:20:38.945Z,5.03
2023-03-20T14:24:43.909Z,5.63
2023-03-20T14:29:00.497Z,5.27
2023-03-20T14:33:07.960Z,4.10
2023-03-20T14:37:12.720Z,6.17
2023-03-20T14:41:23.609Z,4.63
2023-03-20T14:45:46.417Z,5.97
2023-03-20T14:50:26.167Z,4.37
2023-03-20T14:54:29.785Z,5.27
2023-03-20T14:58:49.137Z,3.87
2023-03-20T15:02:53.247Z,4.27
2023-03-20T15:07:01.242Z,5.70
2023-03-20T15:11:10.988Z,3.73
2023-03-20T15:15:25.073Z,3.83
2023-03-20T15:19:26.885Z,3.23
2023-03-20T15:23:27.989Z,3.43
2023-03-20T15:27:29.070Z,4.57
2023-03-20T15:31:33.921Z,5.47
2023-03-20T15:35:35.137Z,5.40
2023-03-20T15:39:46.115Z,4.00
2023-03-20T15:43:47.252Z,5.83
2023-03-20T15:47:48.236Z,4.67
2023-03-20T15:51:50.865Z,4.37
2023-03-20T15:56:04.438Z,3.47
2023-03-20T15:59:58.758Z,5.37
2023-03-20T16:04:00.757Z,4.73
2023-03-20T16:08:21.631Z,5.23
2023-03-20T16:12:23.014Z,5.00
2023-03-20T16:16:24.357Z,6.17
2023-03-20T16:20:29.396Z,3.30
2023-03-20T16:24:36.684Z,4.67
2023-03-20T16:28:38.231Z,4.03
2023-03-20T16:32:42.803Z,4.30
2023-03-20T16:36:47.696Z,5.33
2023-03-20T16:40:49.676Z,5.47
2023-03-20T16:44:57.815Z,4.80
2023-03-20T16:49:19.021Z,4.20
2023-03-20T16:53:20.311Z,5.77
2023-03-20T16:57:21.928Z,4.63
2023-03-20T17:01:26.742Z,5.10
2023-03-20T17:05:43.412Z,6.93
2023-03-20T17:10:20.115Z,6.13
2023-03-20T17:14:21.128Z,6.93
2023-03-20T17:18:22.087Z,9.33
2023-03-20T17:22:25.145Z,6.43
2023-03-20T17:26:26.427Z,5.33
2023-03-20T17:30:27.598Z,5.10
2023-03-20T17:34:28.669Z,6.93
2023-03-20T17:38:30.890Z,8.33
2023-03-20T17:42:32.612Z,7.80
2023-03-20T17:46:40.264Z,6.53
2023-03-20T17:50:37.170Z,6.97
2023-03-20T17:54:38.544Z,6.30
2023-03-20T17:58:42.938Z,7.13
2023-03-20T18:02:43.977Z,10.23
2023-03-20T18:06:47.071Z,7.50
2023-03-20T18:10:49.841Z,9.87
2023-03-20T18:14:51.093Z,8.77
2023-03-20T18:18:53.237Z,8.07
2023-03-20T18:22:54.342Z,6.87
2023-03-20T18:26:55.799Z,7.40
2023-03-20T18:30:57.278Z,7.50
2023-03-20T18:34:58.506Z,7.53
2023-03-20T18:38:59.904Z,9.27
2023-03-20T18:43:01.764Z,7.67
2023-03-20T18:47:02.795Z,6.93
2023-03-20T18:51:04.151Z,6.70
2023-03-20T18:55:06.153Z,6.90
2023-03-20T18:59:07.657Z,7.83
2023-03-20T19:03:10.641Z,8.10
2023-03-20T19:07:12.565Z,9.80
2023-03-20T19:11:20.538Z,7.07
2023-03-20T19:15:22.054Z,6.83
2023-03-20T19:19:23.144Z,7.93
2023-03-20T19:23:25.741Z,6.07
2023-03-20T19:27:27.352Z,6.43
2023-03-20T19:31:28.787Z,7.27
2023-03-20T19:35:54.392Z,5.90
2023-03-20T19:39:34.766Z,8.83
2023-03-20T19:43:51.482Z,9.07
2023-03-20T19:47:39.783Z,8.73
2023-03-20T19:51:41.239Z,7.67
2023-03-20T19:55:42.937Z,8.70
2023-03-20T19:59:44.224Z,10.30
2023-03-20T20:03:45.686Z,8.33
2023-03-20T20:08:17.106Z,8.40
2023-03-20T20:11:49.981Z,11.80
2023-03-20T20:15:51.910Z,6.80
2023-03-20T20:19:54.387Z,7.23
2023-03-20T20:23:55.687Z,6.10
2023-03-20T20:27:56.702Z,7.43
2023-03-20T20:31:59.287Z,9.13
2023-03-20T20:36:46.068Z,7.80
2023-03-20T20:40:09.809Z,10.10
2023-03-20T20:44:16.530Z,13.33
2023-03-20T20:48:15.067Z,7.20
2023-03-20T20:52:17.046Z,7.73
2023-03-20T20:56:18.564Z,7.03
2023-03-20T21:00:22.486Z,7.57
2023-03-20T21:04:23.593Z,6.10
2023-03-20T21:08:24.913Z,6.33
2023-03-20T21:12:38.211Z,4.53
2023-03-20T21:16:31.260Z,12.03
2023-03-20T21:20:33.397Z,11.03
2023-03-20T21:24:35.092Z,7.57
2023-03-20T21:28:36.629Z,7.50
2023-03-20T21:32:39.183Z,9.07
2023-03-20T21:36:41.628Z,7.73
2023-03-20T21:40:43.745Z,8.67
2023-03-20T21:45:35.850Z,11.40
2023-03-20T21:53:34.335Z,7.03
2023-03-20T21:57:29.359Z,7.70
2023-03-20T22:01:46.013Z,5.50
2023-03-20T22:05:43.330Z,8.23
2023-03-20T22:14:05.930Z,5.80
2023-03-20T22:38:12.850Z,5.40
2023-03-20T22:42:24.161Z,7.73
2023-03-20T22:45:42.711Z,4.40
2023-03-20T22:49:39.104Z,8.47
2023-03-20T22:53:40.282Z,8.10
2023-03-20T22:57:47.680Z,8.67
2023-03-20T23:01:43.964Z,6.90
2023-03-20T23:05:45.172Z,6.70
2023-03-20T23:09:47.740Z,5.90
2023-03-20T23:13:49.526Z,6.23
2023-03-20T23:17:50.770Z,7.53
2023-03-20T23:21:51.880Z,4.20
2023-03-20T23:26:10.810Z,5.17
2023-03-20T23:30:12.834Z,7.87
2023-03-20T23:34:14.770Z,6.33
2023-03-20T23:38:16.597Z,6.67
2023-03-20T23:42:30.019Z,6.70
2023-03-20T23:46:21.379Z,6.90
2023-03-20T23:54:32.332Z,11.53
2023-03-20T23:58:34.751Z,10.13
